sensor_id;sensor_type;location;lat;lon;timestamp;temperature;humidity
3086;DHT22;52812;48.960;9.108;2023-03-01T00:00:40;-2.00;99.90
3086;DHT22;52812;48.960;9.108;2023-03-01T00:03:06;-2.00;99.90
3086;DHT22;52812;48.960;9.108;2023-03-01T00:05:31;-2.10;99.90
3086;DHT22;52812;48.960;9.108;2023-03-01T00:07:57;-2.20;99.90
3086;DHT22;52812;48.960;9.108;2023-03-01T00:10:23;-2.20;99.90
3086;DHT22;52812;48.960;9.108;2023-03-01T00:12:48;-2.30;99.90
3086;DHT22;52812;48.960;9.108;2023-03-01T00:15:14;-2.30;99.90
3086;DHT22;52812;48.960;9.108;2023-03-01T00:17:39;-2.40;99.90
3086;DHT22;52812;48.960;9.108;2023-03-01T00:20:05;-2.40;99.90
3086;DHT22;52812;48.960;9.108;2023-03-01T00:22:35;-2.30;99.90
3086;DHT22;52812;48.960;9.108;2023-03-01T00:25:01;-2.30;99.90
3086;DHT22;52812;48.960;9.108;2023-03-01T00:27:27;-2.20;99.90
3086;DHT22;52812;48.960;9.108;2023-03-01T00:29:52;-2.00;99.90
3086;DHT22;52812;48.960;9.108;2023-03-01T00:32:18;-2.00;99.90
3086;DHT22;52812;48.960;9.108;2023-03-01T00:34:44;-2.00;99.90
3086;DHT22;52812;48.960;9.108;2023-03-01T00:37:20;-1.90;99.90
3086;DHT22;52812;48.960;9.108;2023-03-01T00:39:46;-1.80;99.90
3086;DHT22;52812;48.960;9.108;2023-03-01T00:42:12;-1.70;99.90
3086;DHT22;52812;48.960;9.108;2023-03-01T00:44:37;-1.70;99.90
3086;DHT22;52812;48.960;9.108;2023-03-01T00:47:03;-1.80;99.90
3086;DHT22;52812;48.960;9.108;2023-03-01T00:49:28;-1.90;99.90
3086;DHT22;52812;48.960;9.108;2023-03-01T00:51:54;-1.90;99.90
3086;DHT22;52812;48.960;9.108;2023-03-01T00:54:19;-2.00;99.90
3086;DHT22;52812;48.960;9.108;2023-03-01T00:56:45;-2.10;99.90
3086;DHT22;52812;48.960;9.108;2023-03-01T00:59:10;-2.10;99.90
3086;DHT22;52812;48.960;9.108;2023-03-01T01:01:36;-2.10;99.90
3086;DHT22;52812;48.960;9.108;2023-03-01T01:04:05;-2.10;99.90
3086;DHT22;52812;48.960;9.108;2023-03-01T01:06:34;-2.00;99.90
3086;DHT22;52812;48.960;9.108;2023-03-01T01:09:01;-1.90;99.90
3086;DHT22;52812;48.960;9.108;2023-03-01T01:11:28;-1.80;99.90
3086;DHT22;52812;48.960;9.108;2023-03-01T01:13:54;-1.90;99.90
3086;DHT22;52812;48.960;9.108;2023-03-01T01:16:22;-2.00;99.90
3086;DHT22;52812;48.960;9.108;2023-03-01T01:18:48;-2.00;99.90
3086;DHT22;52812;48.960;9.108;2023-03-01T01:21:16;-2.10;99.90
3086;DHT22;52812;48.960;9.108;2023-03-01T01:23:43;-2.10;99.90
3086;DHT22;52812;48.960;9.108;2023-03-01T01:26:35;-2.10;99.90
3086;DHT22;52812;48.960;9.108;2023-03-01T01:29:02;-2.20;99.90
3086;DHT22;52812;48.960;9.108;2023-03-01T01:31:29;-2.20;99.90
3086;DHT22;52812;48.960;9.108;2023-03-01T01:33:55;-2.20;99.90
3086;DHT22;52812;48.960;9.108;2023-03-01T01:36:21;-2.20;99.90
3086;DHT22;52812;48.960;9.108;2023-03-01T01:38:47;-2.20;99.90
3086;DHT22;52812;48.960;9.108;2023-03-01T01:41:13;-2.20;99.90
3086;DHT22;52812;48.960;9.108;2023-03-01T01:43:45;-2.10;99.90
3086;DHT22;52812;48.960;9.108;2023-03-01T01:46:16;-2.10;99.90
3086;DHT22;52812;48.960;9.108;2023-03-01T01:48:48;-2.10;99.90
3086;DHT22;52812;48.960;9.108;2023-03-01T01:51:21;-2.00;99.90
3086;DHT22;52812;48.960;9.108;2023-03-01T01:53:51;-2.00;99.90
3086;DHT22;52812;48.960;9.108;2023-03-01T01:56:18;-2.10;99.90
3086;DHT22;52812;48.960;9.108;2023-03-01T01:58:44;-2.10;99.90
3086;DHT22;52812;48.960;9.108;2023-03-01T02:01:12;-2.20;99.90
3086;DHT22;52812;48.960;9.108;2023-03-01T02:03:39;-2.30;99.90
3086;DHT22;52812;48.960;9.108;2023-03-01T02:08:40;-2.40;99.90
3086;DHT22;52812;48.960;9.108;2023-03-01T02:11:08;-2.40;99.90
3086;DHT22;52812;48.960;9.108;2023-03-01T02:13:34;-2.40;99.90
3086;DHT22;52812;48.960;9.108;2023-03-01T02:16:04;-2.40;99.90
3086;DHT22;52812;48.960;9.108;2023-03-01T02:18:30;-2.40;99.90
3086;DHT22;52812;48.960;9.108;2023-03-01T02:23:43;-2.30;99.90
3086;DHT22;52812;48.960;9.108;2023-03-01T02:26:18;-2.30;99.90
3086;DHT22;52812;48.960;9.108;2023-03-01T02:28:46;-2.30;99.90
3086;DHT22;52812;48.960;9.108;2023-03-01T02:31:16;-2.20;99.90
3086;DHT22;52812;48.960;9.108;2023-03-01T02:34:01;-2.20;99.90
3086;DHT22;52812;48.960;9.108;2023-03-01T02:36:34;-2.20;99.90
3086;DHT22;52812;48.960;9.108;2023-03-01T02:39:03;-2.20;99.90
3086;DHT22;52812;48.960;9.108;2023-03-01T02:41:31;-2.20;99.90
3086;DHT22;52812;48.960;9.108;2023-03-01T02:43:57;-2.20;99.90
3086;DHT22;52812;48.960;9.108;2023-03-01T02:46:25;-2.20;99.90
3086;DHT22;52812;48.960;9.108;2023-03-01T02:48:53;-2.20;99.90
3086;DHT22;52812;48.960;9.108;2023-03-01T02:51:34;-2.20;99.90
3086;DHT22;52812;48.960;9.108;2023-03-01T02:54:11;-2.20;99.90
3086;DHT22;52812;48.960;9.108;2023-03-01T02:56:38;-2.20;99.90
3086;DHT22;52812;48.960;9.108;2023-03-01T02:59:04;-2.10;99.90
3086;DHT22;52812;48.960;9.108;2023-03-01T03:01:30;-2.10;99.90
3086;DHT22;52812;48.960;9.108;2023-03-01T03:04:07;-2.10;99.90
3086;DHT22;52812;48.960;9.108;2023-03-01T03:06:33;-2.00;99.90
3086;DHT22;52812;48.960;9.108;2023-03-01T03:08:59;-2.00;99.90
3086;DHT22;52812;48.960;9.108;2023-03-01T03:11:25;-1.90;99.90
3086;DHT22;52812;48.960;9.108;2023-03-01T03:13:51;-1.80;99.90
3086;DHT22;52812;48.960;9.108;2023-03-01T03:16:18;-1.70;99.90
3086;DHT22;52812;48.960;9.108;2023-03-01T03:18:43;-1.70;99.90
3086;DHT22;52812;48.960;9.108;2023-03-01T03:21:11;-1.70;99.90
3086;DHT22;52812;48.960;9.108;2023-03-01T03:23:37;-1.70;99.90
3086;DHT22;52812;48.960;9.108;2023-03-01T03:26:03;-1.70;99.90
3086;DHT22;52812;48.960;9.108;2023-03-01T03:28:30;-1.70;99.90
3086;DHT22;52812;48.960;9.108;2023-03-01T03:30:56;-1.60;99.90
3086;DHT22;52812;48.960;9.108;2023-03-01T03:33:22;-1.50;99.90
3086;DHT22;52812;48.960;9.108;2023-03-01T03:35:48;-1.50;99.90
3086;DHT22;52812;48.960;9.108;2023-03-01T03:38:16;-1.50;99.90
3086;DHT22;52812;48.960;9.108;2023-03-01T03:40:47;-1.50;99.90
3086;DHT22;52812;48.960;9.108;2023-03-01T03:43:16;-1.40;99.90
3086;DHT22;52812;48.960;9.108;2023-03-01T03:45:44;-1.40;99.90
3086;DHT22;52812;48.960;9.108;2023-03-01T03:48:10;-1.40;99.90
3086;DHT22;52812;48.960;9.108;2023-03-01T03:50:37;-1.50;99.90
3086;DHT22;52812;48.960;9.108;2023-03-01T03:53:05;-1.50;99.90
3086;DHT22;52812;48.960;9.108;2023-03-01T03:55:32;-1.50;99.90
3086;DHT22;52812;48.960;9.108;2023-03-01T03:57:59;-1.50;99.90
3086;DHT22;52812;48.960;9.108;2023-03-01T04:00:32;-1.60;99.90
3086;DHT22;52812;48.960;9.108;2023-03-01T04:02:58;-1.50;99.90
3086;DHT22;52812;48.960;9.108;2023-03-01T04:05:24;-1.50;99.90
3086;DHT22;52812;48.960;9.108;2023-03-01T04:07:50;-1.60;99.90
3086;DHT22;52812;48.960;9.108;2023-03-01T04:10:27;-1.60;99.90
3086;DHT22;52812;48.960;9.108;2023-03-01T04:12:53;-1.70;99.90
3086;DHT22;52812;48.960;9.108;2023-03-01T04:15:18;-1.70;99.90
3086;DHT22;52812;48.960;9.108;2023-03-01T04:17:46;-1.70;99.90
3086;DHT22;52812;48.960;9.108;2023-03-01T04:20:20;-1.80;99.90
3086;DHT22;52812;48.960;9.108;2023-03-01T04:22:56;-1.80;99.90
3086;DHT22;52812;48.960;9.108;2023-03-01T04:28:10;-1.90;99.90
3086;DHT22;52812;48.960;9.108;2023-03-01T04:30:37;-2.10;99.90
3086;DHT22;52812;48.960;9.108;2023-03-01T04:33:07;-2.10;99.90
3086;DHT22;52812;48.960;9.108;2023-03-01T04:35:35;-2.10;99.90
3086;DHT22;52812;48.960;9.108;2023-03-01T04:38:01;-2.20;99.90
3086;DHT22;52812;48.960;9.108;2023-03-01T04:40:26;-2.20;99.90
3086;DHT22;52812;48.960;9.108;2023-03-01T04:42:52;-2.30;99.90
3086;DHT22;52812;48.960;9.108;2023-03-01T04:45:18;-2.30;99.90
3086;DHT22;52812;48.960;9.108;2023-03-01T04:47:45;-2.40;99.90
3086;DHT22;52812;48.960;9.108;2023-03-01T04:50:13;-2.40;99.90
3086;DHT22;52812;48.960;9.108;2023-03-01T04:52:38;-2.40;99.90
3086;DHT22;52812;48.960;9.108;2023-03-01T04:55:04;-2.40;99.90
3086;DHT22;52812;48.960;9.108;2023-03-01T04:57:30;-2.50;99.90
3086;DHT22;52812;48.960;9.108;2023-03-01T04:59:56;-2.50;99.90
3086;DHT22;52812;48.960;9.108;2023-03-01T05:02:22;-2.50;99.90
3086;DHT22;52812;48.960;9.108;2023-03-01T05:04:47;-2.50;99.90
3086;DHT22;52812;48.960;9.108;2023-03-01T05:07:13;-2.50;99.90
3086;DHT22;52812;48.960;9.108;2023-03-01T05:09:45;-2.40;99.90
3086;DHT22;52812;48.960;9.108;2023-03-01T05:12:10;-2.20;99.90
3086;DHT22;52812;48.960;9.108;2023-03-01T05:14:36;-2.10;99.90
3086;DHT22;52812;48.960;9.108;2023-03-01T05:17:03;-2.10;99.90
3086;DHT22;52812;48.960;9.108;2023-03-01T05:19:30;-2.20;99.90
3086;DHT22;52812;48.960;9.108;2023-03-01T05:21:56;-2.20;99.90
3086;DHT22;52812;48.960;9.108;2023-03-01T05:24:33;-2.20;99.90
3086;DHT22;52812;48.960;9.108;2023-03-01T05:27:00;-2.20;99.90
3086;DHT22;52812;48.960;9.108;2023-03-01T05:29:28;-2.20;99.90
3086;DHT22;52812;48.960;9.108;2023-03-01T05:31:58;-2.20;99.90
3086;DHT22;52812;48.960;9.108;2023-03-01T05:34:33;-2.20;99.90
3086;DHT22;52812;48.960;9.108;2023-03-01T05:36:59;-2.20;99.90
3086;DHT22;52812;48.960;9.108;2023-03-01T05:39:27;-2.20;99.90
3086;DHT22;52812;48.960;9.108;2023-03-01T05:41:54;-2.20;99.90
3086;DHT22;52812;48.960;9.108;2023-03-01T05:44:20;-2.20;99.90
3086;DHT22;52812;48.960;9.108;2023-03-01T05:46:46;-2.30;99.90
3086;DHT22;52812;48.960;9.108;2023-03-01T05:49:12;-2.30;99.90
3086;DHT22;52812;48.960;9.108;2023-03-01T05:51:42;-2.30;99.90
3086;DHT22;52812;48.960;9.108;2023-03-01T05:54:09;-2.30;99.90
3086;DHT22;52812;48.960;9.108;2023-03-01T05:56:35;-2.20;99.90
3086;DHT22;52812;48.960;9.108;2023-03-01T05:59:03;-2.20;99.90
3086;DHT22;52812;48.960;9.108;2023-03-01T06:01:30;-2.20;99.90
3086;DHT22;52812;48.960;9.108;2023-03-01T06:03:56;-2.20;99.90
3086;DHT22;52812;48.960;9.108;2023-03-01T06:06:22;-2.20;99.90
3086;DHT22;52812;48.960;9.108;2023-03-01T06:08:48;-2.10;99.90
3086;DHT22;52812;48.960;9.108;2023-03-01T06:11:13;-2.10;99.90
3086;DHT22;52812;48.960;9.108;2023-03-01T06:13:40;-2.00;99.90
3086;DHT22;52812;48.960;9.108;2023-03-01T06:16:06;-2.00;99.90
3086;DHT22;52812;48.960;9.108;2023-03-01T06:18:32;-2.00;99.90
3086;DHT22;52812;48.960;9.108;2023-03-01T06:20:58;-2.00;99.90
3086;DHT22;52812;48.960;9.108;2023-03-01T06:23:24;-2.00;99.90
3086;DHT22;52812;48.960;9.108;2023-03-01T06:25:50;-1.90;99.90
3086;DHT22;52812;48.960;9.108;2023-03-01T06:28:15;-1.90;99.90
3086;DHT22;52812;48.960;9.108;2023-03-01T06:30:41;-1.80;99.90
3086;DHT22;52812;48.960;9.108;2023-03-01T06:33:07;-1.80;99.90
3086;DHT22;52812;48.960;9.108;2023-03-01T06:35:32;-1.70;99.90
3086;DHT22;52812;48.960;9.108;2023-03-01T06:38:00;-1.60;99.90
3086;DHT22;52812;48.960;9.108;2023-03-01T06:40:26;-1.60;99.90
3086;DHT22;52812;48.960;9.108;2023-03-01T06:42:51;-1.50;99.90
3086;DHT22;52812;48.960;9.108;2023-03-01T06:45:19;-1.40;99.90
3086;DHT22;52812;48.960;9.108;2023-03-01T06:47:45;-1.40;99.90
3086;DHT22;52812;48.960;9.108;2023-03-01T06:50:11;-1.30;99.90
3086;DHT22;52812;48.960;9.108;2023-03-01T06:52:37;-1.20;99.90
3086;DHT22;52812;48.960;9.108;2023-03-01T06:55:04;-1.20;99.90
3086;DHT22;52812;48.960;9.108;2023-03-01T06:57:30;-1.20;99.90
3086;DHT22;52812;48.960;9.108;2023-03-01T06:59:55;-1.20;99.90
3086;DHT22;52812;48.960;9.108;2023-03-01T07:02:21;-1.20;99.90
3086;DHT22;52812;48.960;9.108;2023-03-01T07:04:51;-1.20;99.90
3086;DHT22;52812;48.960;9.108;2023-03-01T07:07:17;-1.10;99.90
3086;DHT22;52812;48.960;9.108;2023-03-01T07:09:44;-1.10;99.90
3086;DHT22;52812;48.960;9.108;2023-03-01T07:12:10;-1.00;99.90
3086;DHT22;52812;48.960;9.108;2023-03-01T07:14:35;-0.90;99.90
3086;DHT22;52812;48.960;9.108;2023-03-01T07:17:01;-0.80;99.90
3086;DHT22;52812;48.960;9.108;2023-03-01T07:19:27;-0.70;99.90
3086;DHT22;52812;48.960;9.108;2023-03-01T07:21:52;-0.60;99.90
3086;DHT22;52812;48.960;9.108;2023-03-01T07:24:18;-0.50;99.90
3086;DHT22;52812;48.960;9.108;2023-03-01T07:26:43;-0.30;99.90
3086;DHT22;52812;48.960;9.108;2023-03-01T07:29:10;-0.20;99.90
3086;DHT22;52812;48.960;9.108;2023-03-01T07:31:36;0.10;99.90
3086;DHT22;52812;48.960;9.108;2023-03-01T07:34:02;0.30;99.90
3086;DHT22;52812;48.960;9.108;2023-03-01T07:36:28;0.30;99.90
3086;DHT22;52812;48.960;9.108;2023-03-01T07:38:54;0.50;99.90
3086;DHT22;52812;48.960;9.108;2023-03-01T07:41:21;0.50;99.90
3086;DHT22;52812;48.960;9.108;2023-03-01T07:43:47;0.60;99.90
3086;DHT22;52812;48.960;9.108;2023-03-01T07:46:12;0.80;99.90
3086;DHT22;52812;48.960;9.108;2023-03-01T07:48:38;0.80;99.90
3086;DHT22;52812;48.960;9.108;2023-03-01T07:51:05;0.70;99.90
3086;DHT22;52812;48.960;9.108;2023-03-01T07:53:32;0.80;99.90
3086;DHT22;52812;48.960;9.108;2023-03-01T07:56:12;0.60;99.90
3086;DHT22;52812;48.960;9.108;2023-03-01T07:58:39;0.50;99.90
3086;DHT22;52812;48.960;9.108;2023-03-01T08:01:07;0.40;99.90
3086;DHT22;52812;48.960;9.108;2023-03-01T08:03:33;0.30;99.90
3086;DHT22;52812;48.960;9.108;2023-03-01T08:06:00;0.20;99.90
3086;DHT22;52812;48.960;9.108;2023-03-01T08:08:26;0.20;99.90
3086;DHT22;52812;48.960;9.108;2023-03-01T08:10:51;0.30;99.90
3086;DHT22;52812;48.960;9.108;2023-03-01T08:13:17;0.30;99.90
3086;DHT22;52812;48.960;9.108;2023-03-01T08:15:48;0.50;99.90
3086;DHT22;52812;48.960;9.108;2023-03-01T08:18:14;0.60;99.90
3086;DHT22;52812;48.960;9.108;2023-03-01T08:20:40;0.60;99.90
3086;DHT22;52812;48.960;9.108;2023-03-01T08:23:05;0.70;99.90
3086;DHT22;52812;48.960;9.108;2023-03-01T08:25:31;0.80;99.90
3086;DHT22;52812;48.960;9.108;2023-03-01T08:27:59;0.90;99.90
3086;DHT22;52812;48.960;9.108;2023-03-01T08:30:25;0.90;99.90
3086;DHT22;52812;48.960;9.108;2023-03-01T08:32:51;1.00;99.90
3086;DHT22;52812;48.960;9.108;2023-03-01T08:35:17;1.20;99.90
3086;DHT22;52812;48.960;9.108;2023-03-01T08:37:43;1.20;99.90
3086;DHT22;52812;48.960;9.108;2023-03-01T08:40:09;1.30;99.90
3086;DHT22;52812;48.960;9.108;2023-03-01T08:42:36;1.40;99.90
3086;DHT22;52812;48.960;9.108;2023-03-01T08:45:03;1.50;99.90
3086;DHT22;52812;48.960;9.108;2023-03-01T08:47:29;1.50;99.90
3086;DHT22;52812;48.960;9.108;2023-03-01T08:49:54;1.60;99.90
3086;DHT22;52812;48.960;9.108;2023-03-01T08:52:20;1.70;99.90
3086;DHT22;52812;48.960;9.108;2023-03-01T08:54:48;1.80;99.90
3086;DHT22;52812;48.960;9.108;2023-03-01T08:57:14;2.00;99.90
3086;DHT22;52812;48.960;9.108;2023-03-01T08:59:39;1.90;99.90
3086;DHT22;52812;48.960;9.108;2023-03-01T09:02:12;2.10;99.90
3086;DHT22;52812;48.960;9.108;2023-03-01T09:04:37;2.20;99.90
3086;DHT22;52812;48.960;9.108;2023-03-01T09:07:03;2.40;99.90
3086;DHT22;52812;48.960;9.108;2023-03-01T09:09:29;2.40;99.90
3086;DHT22;52812;48.960;9.108;2023-03-01T09:11:55;2.40;99.90
3086;DHT22;52812;48.960;9.108;2023-03-01T09:14:20;2.60;99.90
3086;DHT22;52812;48.960;9.108;2023-03-01T09:16:46;2.70;99.90
3086;DHT22;52812;48.960;9.108;2023-03-01T09:19:13;2.60;99.90
3086;DHT22;52812;48.960;9.108;2023-03-01T09:21:39;2.80;99.90
3086;DHT22;52812;48.960;9.108;2023-03-01T09:24:06;3.10;99.90
3086;DHT22;52812;48.960;9.108;2023-03-01T09:26:31;3.20;99.90
3086;DHT22;52812;48.960;9.108;2023-03-01T09:28:57;3.50;99.90
3086;DHT22;52812;48.960;9.108;2023-03-01T09:31:24;3.30;99.90
3086;DHT22;52812;48.960;9.108;2023-03-01T09:33:52;3.40;99.90
3086;DHT22;52812;48.960;9.108;2023-03-01T09:36:20;3.40;99.90
3086;DHT22;52812;48.960;9.108;2023-03-01T09:38:46;3.50;99.90
3086;DHT22;52812;48.960;9.108;2023-03-01T09:41:40;3.70;99.90
3086;DHT22;52812;48.960;9.108;2023-03-01T09:44:27;3.90;99.90
3086;DHT22;52812;48.960;9.108;2023-03-01T09:46:55;3.80;99.90
3086;DHT22;52812;48.960;9.108;2023-03-01T09:49:27;3.60;99.90
3086;DHT22;52812;48.960;9.108;2023-03-01T09:52:59;3.70;99.90
3086;DHT22;52812;48.960;9.108;2023-03-01T09:55:12;3.90;99.90
3086;DHT22;52812;48.960;9.108;2023-03-01T09:57:53;3.80;99.90
3086;DHT22;52812;48.960;9.108;2023-03-01T10:00:41;3.80;99.90
3086;DHT22;52812;48.960;9.108;2023-03-01T10:05:52;4.10;99.90
3086;DHT22;52812;48.960;9.108;2023-03-01T10:08:32;3.80;99.90
3086;DHT22;52812;48.960;9.108;2023-03-01T10:11:02;3.90;99.90
3086;DHT22;52812;48.960;9.108;2023-03-01T10:16:23;3.80;99.90
3086;DHT22;52812;48.960;9.108;2023-03-01T10:18:55;3.70;99.90
3086;DHT22;52812;48.960;9.108;2023-03-01T10:21:22;3.70;99.90
3086;DHT22;52812;48.960;9.108;2023-03-01T10:23:51;3.80;99.90
3086;DHT22;52812;48.960;9.108;2023-03-01T10:26:47;3.70;99.90
3086;DHT22;52812;48.960;9.108;2023-03-01T10:29:14;3.90;99.90
3086;DHT22;52812;48.960;9.108;2023-03-01T10:31:44;3.80;99.90
3086;DHT22;52812;48.960;9.108;2023-03-01T10:34:14;4.00;99.90
3086;DHT22;52812;48.960;9.108;2023-03-01T10:36:42;4.10;99.90
3086;DHT22;52812;48.960;9.108;2023-03-01T10:39:14;4.20;99.90
3086;DHT22;52812;48.960;9.108;2023-03-01T10:42:01;4.40;99.90
3086;DHT22;52812;48.960;9.108;2023-03-01T10:44:43;4.40;99.90
3086;DHT22;52812;48.960;9.108;2023-03-01T10:47:22;4.40;99.90
3086;DHT22;52812;48.960;9.108;2023-03-01T10:49:52;4.60;99.90
3086;DHT22;52812;48.960;9.108;2023-03-01T10:52:21;4.70;99.90
3086;DHT22;52812;48.960;9.108;2023-03-01T10:55:04;4.60;99.90
3086;DHT22;52812;48.960;9.108;2023-03-01T10:57:43;4.50;99.90
3086;DHT22;52812;48.960;9.108;2023-03-01T11:00:21;4.70;99.90
3086;DHT22;52812;48.960;9.108;2023-03-01T11:03:11;4.90;99.90
3086;DHT22;52812;48.960;9.108;2023-03-01T11:05:51;5.20;99.90
3086;DHT22;52812;48.960;9.108;2023-03-01T11:08:30;5.20;99.90
3086;DHT22;52812;48.960;9.108;2023-03-01T11:16:35;5.20;99.90
3086;DHT22;52812;48.960;9.108;2023-03-01T11:21:46;5.50;99.90
3086;DHT22;52812;48.960;9.108;2023-03-01T11:24:14;5.60;99.90
3086;DHT22;52812;48.960;9.108;2023-03-01T11:26:43;5.70;99.90
3086;DHT22;52812;48.960;9.108;2023-03-01T11:29:28;5.40;99.90
3086;DHT22;52812;48.960;9.108;2023-03-01T11:31:58;5.50;99.90
3086;DHT22;52812;48.960;9.108;2023-03-01T11:37:13;5.50;99.90
3086;DHT22;52812;48.960;9.108;2023-03-01T11:40:05;5.60;99.90
3086;DHT22;52812;48.960;9.108;2023-03-01T11:42:56;5.60;99.90
3086;DHT22;52812;48.960;9.108;2023-03-01T11:45:24;5.60;99.90
3086;DHT22;52812;48.960;9.108;2023-03-01T11:48:11;5.70;99.90
3086;DHT22;52812;48.960;9.108;2023-03-01T11:50:47;5.80;99.90
3086;DHT22;52812;48.960;9.108;2023-03-01T11:53:44;5.90;99.90
3086;DHT22;52812;48.960;9.108;2023-03-01T11:59:16;5.90;99.90
3086;DHT22;52812;48.960;9.108;2023-03-01T12:02:27;6.10;99.90
3086;DHT22;52812;48.960;9.108;2023-03-01T12:07:53;6.10;99.90
3086;DHT22;52812;48.960;9.108;2023-03-01T12:10:59;5.90;99.90
3086;DHT22;52812;48.960;9.108;2023-03-01T12:22:16;6.00;99.90
3086;DHT22;52812;48.960;9.108;2023-03-01T12:42:04;6.10;99.90
3086;DHT22;52812;48.960;9.108;2023-03-01T12:50:01;6.40;99.90
3086;DHT22;52812;48.960;9.108;2023-03-01T12:52:44;6.50;99.90
3086;DHT22;52812;48.960;9.108;2023-03-01T12:58:21;6.40;99.90
3086;DHT22;52812;48.960;9.108;2023-03-01T13:01:13;6.40;99.90
3086;DHT22;52812;48.960;9.108;2023-03-01T13:06:19;6.50;99.90
3086;DHT22;52812;48.960;9.108;2023-03-01T13:11:57;6.40;99.90
3086;DHT22;52812;48.960;9.108;2023-03-01T13:16:49;6.50;99.90
3086;DHT22;52812;48.960;9.108;2023-03-01T13:19:26;6.40;99.90
3086;DHT22;52812;48.960;9.108;2023-03-01T13:21:57;6.40;99.90
3086;DHT22;52812;48.960;9.108;2023-03-01T13:24:37;6.40;99.90
3086;DHT22;52812;48.960;9.108;2023-03-01T13:29:53;6.30;99.90
3086;DHT22;52812;48.960;9.108;2023-03-01T13:32:30;6.40;99.90
3086;DHT22;52812;48.960;9.108;2023-03-01T13:37:51;6.40;99.90
3086;DHT22;52812;48.960;9.108;2023-03-01T13:42:50;6.40;99.90
3086;DHT22;52812;48.960;9.108;2023-03-01T13:45:20;6.40;99.90
3086;DHT22;52812;48.960;9.108;2023-03-01T13:47:50;6.50;99.90
3086;DHT22;52812;48.960;9.108;2023-03-01T13:50:27;6.50;99.90
3086;DHT22;52812;48.960;9.108;2023-03-01T13:53:05;6.50;99.90
3086;DHT22;52812;48.960;9.108;2023-03-01T13:55:40;6.50;99.90
3086;DHT22;52812;48.960;9.108;2023-03-01T13:58:24;6.50;99.90
3086;DHT22;52812;48.960;9.108;2023-03-01T14:00:59;6.50;99.90
3086;DHT22;52812;48.960;9.108;2023-03-01T14:03:25;6.60;99.90
3086;DHT22;52812;48.960;9.108;2023-03-01T14:06:07;6.60;99.90
3086;DHT22;52812;48.960;9.108;2023-03-01T14:08:35;6.70;99.90
3086;DHT22;52812;48.960;9.108;2023-03-01T14:11:20;6.70;99.90
3086;DHT22;52812;48.960;9.108;2023-03-01T14:14:06;6.60;99.90
3086;DHT22;52812;48.960;9.108;2023-03-01T14:16:44;6.60;99.90
3086;DHT22;52812;48.960;9.108;2023-03-01T14:19:18;6.50;99.90
3086;DHT22;52812;48.960;9.108;2023-03-01T14:21:46;6.50;99.90
3086;DHT22;52812;48.960;9.108;2023-03-01T14:24:21;6.50;99.90
3086;DHT22;52812;48.960;9.108;2023-03-01T14:26:49;6.50;99.90
3086;DHT22;52812;48.960;9.108;2023-03-01T14:29:35;6.50;99.90
3086;DHT22;52812;48.960;9.108;2023-03-01T14:32:22;6.50;99.90
3086;DHT22;52812;48.960;9.108;2023-03-01T14:34:50;6.50;99.90
3086;DHT22;52812;48.960;9.108;2023-03-01T14:37:30;6.50;99.90
3086;DHT22;52812;48.960;9.108;2023-03-01T14:39:58;6.40;99.90
3086;DHT22;52812;48.960;9.108;2023-03-01T14:42:27;6.50;99.90
3086;DHT22;52812;48.960;9.108;2023-03-01T14:44:55;6.50;99.90
3086;DHT22;52812;48.960;9.108;2023-03-01T14:47:30;6.40;99.90
3086;DHT22;52812;48.960;9.108;2023-03-01T14:50:07;6.40;99.90
3086;DHT22;52812;48.960;9.108;2023-03-01T14:52:42;6.50;99.90
3086;DHT22;52812;48.960;9.108;2023-03-01T14:55:26;6.50;99.90
3086;DHT22;52812;48.960;9.108;2023-03-01T14:57:53;6.50;99.90
3086;DHT22;52812;48.960;9.108;2023-03-01T15:00:22;6.50;99.90
3086;DHT22;52812;48.960;9.108;2023-03-01T15:02:51;6.50;99.90
3086;DHT22;52812;48.960;9.108;2023-03-01T15:05:30;6.50;99.90
3086;DHT22;52812;48.960;9.108;2023-03-01T15:08:01;6.50;99.90
3086;DHT22;52812;48.960;9.108;2023-03-01T15:10:30;6.50;99.90
3086;DHT22;52812;48.960;9.108;2023-03-01T15:13:09;6.40;99.90
3086;DHT22;52812;48.960;9.108;2023-03-01T15:15:41;6.40;99.90
3086;DHT22;52812;48.960;9.108;2023-03-01T15:20:43;6.40;99.90
3086;DHT22;52812;48.960;9.108;2023-03-01T15:23:22;6.40;99.90
3086;DHT22;52812;48.960;9.108;2023-03-01T15:25:49;6.40;99.90
3086;DHT22;52812;48.960;9.108;2023-03-01T15:28:24;6.40;99.90
3086;DHT22;52812;48.960;9.108;2023-03-01T15:30:57;6.50;99.90
3086;DHT22;52812;48.960;9.108;2023-03-01T15:35:56;6.50;99.90
3086;DHT22;52812;48.960;9.108;2023-03-01T15:38:53;6.50;99.90
3086;DHT22;52812;48.960;9.108;2023-03-01T15:41:31;6.50;99.90
3086;DHT22;52812;48.960;9.108;2023-03-01T15:44:14;6.50;99.90
3086;DHT22;52812;48.960;9.108;2023-03-01T15:46:40;6.50;99.90
3086;DHT22;52812;48.960;9.108;2023-03-01T15:49:38;6.50;99.90
3086;DHT22;52812;48.960;9.108;2023-03-01T15:52:10;6.50;99.90
3086;DHT22;52812;48.960;9.108;2023-03-01T15:54:39;6.50;99.90
3086;DHT22;52812;48.960;9.108;2023-03-01T15:57:12;6.50;99.90
3086;DHT22;52812;48.960;9.108;2023-03-01T15:59:38;6.50;99.90
3086;DHT22;52812;48.960;9.108;2023-03-01T16:02:11;6.50;99.90
3086;DHT22;52812;48.960;9.108;2023-03-01T16:04:40;6.60;99.90
3086;DHT22;52812;48.960;9.108;2023-03-01T16:07:06;6.50;99.90
3086;DHT22;52812;48.960;9.108;2023-03-01T16:09:31;6.50;99.90
3086;DHT22;52812;48.960;9.108;2023-03-01T16:11:57;6.50;99.90
3086;DHT22;52812;48.960;9.108;2023-03-01T16:14:23;6.50;99.90
3086;DHT22;52812;48.960;9.108;2023-03-01T16:16:48;6.40;99.90
3086;DHT22;52812;48.960;9.108;2023-03-01T16:19:14;6.50;99.90
3086;DHT22;52812;48.960;9.108;2023-03-01T16:21:40;6.40;99.90
3086;DHT22;52812;48.960;9.108;2023-03-01T16:24:08;6.40;99.90
3086;DHT22;52812;48.960;9.108;2023-03-01T16:26:33;6.30;99.90
3086;DHT22;52812;48.960;9.108;2023-03-01T16:28:59;6.30;99.90
3086;DHT22;52812;48.960;9.108;2023-03-01T16:31:25;6.20;99.90
3086;DHT22;52812;48.960;9.108;2023-03-01T16:33:55;6.10;99.90
3086;DHT22;52812;48.960;9.108;2023-03-01T16:36:22;6.10;99.90
3086;DHT22;52812;48.960;9.108;2023-03-01T16:38:52;6.00;99.90
3086;DHT22;52812;48.960;9.108;2023-03-01T16:41:20;5.90;99.90
3086;DHT22;52812;48.960;9.108;2023-03-01T16:43:46;6.00;99.90
3086;DHT22;52812;48.960;9.108;2023-03-01T16:46:14;5.90;99.90
3086;DHT22;52812;48.960;9.108;2023-03-01T16:48:40;5.90;99.90
3086;DHT22;52812;48.960;9.108;2023-03-01T16:51:07;5.80;99.90
3086;DHT22;52812;48.960;9.108;2023-03-01T16:53:34;5.80;99.90
3086;DHT22;52812;48.960;9.108;2023-03-01T16:56:05;5.80;99.90
3086;DHT22;52812;48.960;9.108;2023-03-01T16:58:31;5.80;99.90
3086;DHT22;52812;48.960;9.108;2023-03-01T17:01:02;5.80;99.90
3086;DHT22;52812;48.960;9.108;2023-03-01T17:03:28;5.70;99.90
3086;DHT22;52812;48.960;9.108;2023-03-01T17:05:54;5.70;99.90
3086;DHT22;52812;48.960;9.108;2023-03-01T17:08:19;5.50;99.90
3086;DHT22;52812;48.960;9.108;2023-03-01T17:10:45;5.50;99.90
3086;DHT22;52812;48.960;9.108;2023-03-01T17:13:11;5.40;99.90
3086;DHT22;52812;48.960;9.108;2023-03-01T17:15:42;5.40;99.90
3086;DHT22;52812;48.960;9.108;2023-03-01T17:18:08;5.30;99.90
3086;DHT22;52812;48.960;9.108;2023-03-01T17:20:35;5.30;99.90
3086;DHT22;52812;48.960;9.108;2023-03-01T17:23:01;5.30;99.90
3086;DHT22;52812;48.960;9.108;2023-03-01T17:25:27;5.30;99.90
3086;DHT22;52812;48.960;9.108;2023-03-01T17:27:52;5.10;99.90
3086;DHT22;52812;48.960;9.108;2023-03-01T17:30:18;5.00;99.90
3086;DHT22;52812;48.960;9.108;2023-03-01T17:32:44;5.10;99.90
3086;DHT22;52812;48.960;9.108;2023-03-01T17:35:09;5.10;99.90
3086;DHT22;52812;48.960;9.108;2023-03-01T17:37:37;5.00;99.90